Rivers, Canada
Current Conditions -  °F | °C
As of 8:00 AM on Thursday 29 Jan 2015 (Local Time) from CYBR Reporting Station
Light Snow Light Snow  
Wind Chill: -4°   Ceiling: 1800
Heat Index: 10°   Visibility: 12mi
Dew Point:   Wind: 12mph
Humidity: 79%   Direction: 320°NW
Pressure: 30.47"   Gusts: NA
Location:  50.03°N, 100.22°W
Report Text: CYBR 291400Z 32010KT 12SM -SN OVC018 M12/M15 A3047 RMK SC8 SLP352
Loading
Personal Weather Stations






























Interactive Weather Map New forecast layout! Learn more

10-Day Weather Forecast

Advertisements
Track Severe Weather on mobile